sensor_id;sensor_type;location;lat;lon;timestamp;P1;durP1;ratioP1;P2;durP2;ratioP2
43682;SDS011;29285;52.128;21.060;2023-06-22T00:00:29;28.50;;;25.80;;
43682;SDS011;29285;52.128;21.060;2023-06-22T00:05:50;28.70;;;26.00;;
43682;SDS011;29285;52.128;21.060;2023-06-22T00:10:52;29.40;;;26.80;;
43682;SDS011;29285;52.128;21.060;2023-06-22T00:15:53;30.80;;;28.10;;
43682;SDS011;29285;52.128;21.060;2023-06-22T00:20:54;29.70;;;27.00;;
43682;SDS011;29285;52.128;21.060;2023-06-22T00:25:59;28.80;;;26.20;;
43682;SDS011;29285;52.128;21.060;2023-06-22T00:31:00;29.30;;;26.90;;
43682;SDS011;29285;52.128;21.060;2023-06-22T00:36:01;30.60;;;27.40;;
43682;SDS011;29285;52.128;21.060;2023-06-22T00:41:03;31.10;;;28.30;;
43682;SDS011;29285;52.128;21.060;2023-06-22T00:46:04;29.20;;;26.80;;
43682;SDS011;29285;52.128;21.060;2023-06-22T00:51:06;28.70;;;26.10;;
43682;SDS011;29285;52.128;21.060;2023-06-22T00:56:07;27.20;;;24.70;;
43682;SDS011;29285;52.128;21.060;2023-06-22T01:01:09;27.00;;;24.60;;
43682;SDS011;29285;52.128;21.060;2023-06-22T01:06:11;26.90;;;24.50;;
43682;SDS011;29285;52.128;21.060;2023-06-22T01:11:25;28.10;;;25.50;;
43682;SDS011;29285;52.128;21.060;2023-06-22T01:16:33;27.90;;;25.40;;
43682;SDS011;29285;52.128;21.060;2023-06-22T01:21:35;28.20;;;25.60;;
43682;SDS011;29285;52.128;21.060;2023-06-22T01:26:38;27.20;;;24.90;;
43682;SDS011;29285;52.128;21.060;2023-06-22T01:32:06;28.30;;;25.90;;
43682;SDS011;29285;52.128;21.060;2023-06-22T01:37:08;27.10;;;24.70;;
43682;SDS011;29285;52.128;21.060;2023-06-22T01:42:09;28.70;;;25.70;;
43682;SDS011;29285;52.128;21.060;2023-06-22T01:47:11;27.20;;;24.80;;
43682;SDS011;29285;52.128;21.060;2023-06-22T01:52:14;28.90;;;26.30;;
43682;SDS011;29285;52.128;21.060;2023-06-22T01:57:15;30.60;;;27.60;;
43682;SDS011;29285;52.128;21.060;2023-06-22T02:02:17;29.30;;;26.40;;
43682;SDS011;29285;52.128;21.060;2023-06-22T02:07:20;28.10;;;25.40;;
43682;SDS011;29285;52.128;21.060;2023-06-22T02:17:26;29.40;;;26.60;;
43682;SDS011;29285;52.128;21.060;2023-06-22T02:22:27;31.40;;;28.10;;
43682;SDS011;29285;52.128;21.060;2023-06-22T02:27:28;30.30;;;27.50;;
43682;SDS011;29285;52.128;21.060;2023-06-22T02:32:29;32.70;;;29.50;;
43682;SDS011;29285;52.128;21.060;2023-06-22T02:37:33;32.20;;;29.30;;
43682;SDS011;29285;52.128;21.060;2023-06-22T02:42:35;30.20;;;27.50;;
43682;SDS011;29285;52.128;21.060;2023-06-22T02:47:40;35.30;;;31.90;;
43682;SDS011;29285;52.128;21.060;2023-06-22T02:52:41;37.50;;;32.90;;
43682;SDS011;29285;52.128;21.060;2023-06-22T02:57:41;36.10;;;32.70;;
43682;SDS011;29285;52.128;21.060;2023-06-22T03:02:44;34.80;;;31.60;;
43682;SDS011;29285;52.128;21.060;2023-06-22T03:07:46;40.10;;;36.00;;
43682;SDS011;29285;52.128;21.060;2023-06-22T03:12:47;42.20;;;37.70;;
43682;SDS011;29285;52.128;21.060;2023-06-22T03:17:48;51.20;;;41.20;;
43682;SDS011;29285;52.128;21.060;2023-06-22T03:22:49;49.10;;;43.60;;
43682;SDS011;29285;52.128;21.060;2023-06-22T03:27:50;50.00;;;44.20;;
43682;SDS011;29285;52.128;21.060;2023-06-22T03:32:51;48.10;;;43.10;;
43682;SDS011;29285;52.128;21.060;2023-06-22T03:37:52;49.90;;;44.20;;
43682;SDS011;29285;52.128;21.060;2023-06-22T03:42:52;48.00;;;42.80;;
43682;SDS011;29285;52.128;21.060;2023-06-22T03:47:54;49.80;;;44.40;;
43682;SDS011;29285;52.128;21.060;2023-06-22T03:52:55;49.30;;;44.00;;
43682;SDS011;29285;52.128;21.060;2023-06-22T04:17:19;44.10;;;39.40;;
43682;SDS011;29285;52.128;21.060;2023-06-22T04:22:20;44.80;;;40.00;;
43682;SDS011;29285;52.128;21.060;2023-06-22T04:27:21;45.00;;;40.10;;
43682;SDS011;29285;52.128;21.060;2023-06-22T04:32:23;41.60;;;37.40;;
43682;SDS011;29285;52.128;21.060;2023-06-22T04:37:24;40.80;;;36.70;;
43682;SDS011;29285;52.128;21.060;2023-06-22T04:42:28;38.90;;;35.20;;
43682;SDS011;29285;52.128;21.060;2023-06-22T04:47:29;37.50;;;33.90;;
43682;SDS011;29285;52.128;21.060;2023-06-22T04:52:30;40.30;;;36.30;;
43682;SDS011;29285;52.128;21.060;2023-06-22T04:57:31;39.00;;;35.10;;
43682;SDS011;29285;52.128;21.060;2023-06-22T05:07:36;38.10;;;34.40;;
43682;SDS011;29285;52.128;21.060;2023-06-22T05:12:37;40.60;;;35.70;;
43682;SDS011;29285;52.128;21.060;2023-06-22T05:17:38;41.00;;;36.00;;
43682;SDS011;29285;52.128;21.060;2023-06-22T05:22:43;38.30;;;34.40;;
43682;SDS011;29285;52.128;21.060;2023-06-22T05:27:44;36.90;;;33.40;;
43682;SDS011;29285;52.128;21.060;2023-06-22T05:32:45;34.80;;;31.40;;
43682;SDS011;29285;52.128;21.060;2023-06-22T05:37:46;36.30;;;32.60;;
43682;SDS011;29285;52.128;21.060;2023-06-22T05:42:47;35.10;;;31.60;;
43682;SDS011;29285;52.128;21.060;2023-06-22T05:47:48;35.80;;;32.40;;
43682;SDS011;29285;52.128;21.060;2023-06-22T05:52:49;34.40;;;30.80;;
43682;SDS011;29285;52.128;21.060;2023-06-22T05:57:50;25.00;;;22.70;;
43682;SDS011;29285;52.128;21.060;2023-06-22T06:02:51;34.20;;;30.30;;
43682;SDS011;29285;52.128;21.060;2023-06-22T06:07:52;33.40;;;30.00;;
43682;SDS011;29285;52.128;21.060;2023-06-22T06:12:53;32.80;;;29.70;;
43682;SDS011;29285;52.128;21.060;2023-06-22T06:17:54;32.80;;;29.50;;
43682;SDS011;29285;52.128;21.060;2023-06-22T06:22:55;32.60;;;29.30;;
43682;SDS011;29285;52.128;21.060;2023-06-22T06:27:56;32.30;;;29.00;;
43682;SDS011;29285;52.128;21.060;2023-06-22T06:32:57;33.50;;;30.20;;
43682;SDS011;29285;52.128;21.060;2023-06-22T06:37:58;31.40;;;28.10;;
43682;SDS011;29285;52.128;21.060;2023-06-22T06:42:59;30.40;;;27.50;;
43682;SDS011;29285;52.128;21.060;2023-06-22T06:48:00;30.00;;;26.90;;
43682;SDS011;29285;52.128;21.060;2023-06-22T06:53:01;27.70;;;24.90;;
43682;SDS011;29285;52.128;21.060;2023-06-22T06:58:02;27.70;;;25.20;;
43682;SDS011;29285;52.128;21.060;2023-06-22T07:03:08;25.50;;;23.00;;
43682;SDS011;29285;52.128;21.060;2023-06-22T07:08:09;27.50;;;24.90;;
43682;SDS011;29285;52.128;21.060;2023-06-22T07:13:10;29.20;;;23.10;;
43682;SDS011;29285;52.128;21.060;2023-06-22T07:18:11;24.50;;;22.20;;
43682;SDS011;29285;52.128;21.060;2023-06-22T07:23:13;24.00;;;21.60;;
43682;SDS011;29285;52.128;21.060;2023-06-22T07:28:14;23.10;;;20.70;;
43682;SDS011;29285;52.128;21.060;2023-06-22T07:33:15;21.50;;;19.40;;
43682;SDS011;29285;52.128;21.060;2023-06-22T07:38:15;21.00;;;18.80;;
43682;SDS011;29285;52.128;21.060;2023-06-22T07:43:16;18.90;;;17.20;;
43682;SDS011;29285;52.128;21.060;2023-06-22T07:48:19;18.50;;;16.90;;
43682;SDS011;29285;52.128;21.060;2023-06-22T07:53:22;16.80;;;15.20;;
43682;SDS011;29285;52.128;21.060;2023-06-22T07:58:23;14.50;;;13.00;;
43682;SDS011;29285;52.128;21.060;2023-06-22T08:03:24;15.90;;;11.90;;
43682;SDS011;29285;52.128;21.060;2023-06-22T08:08:25;16.70;;;11.60;;
43682;SDS011;29285;52.128;21.060;2023-06-22T08:13:26;11.00;;;10.00;;
43682;SDS011;29285;52.128;21.060;2023-06-22T08:18:27;11.80;;;10.80;;
43682;SDS011;29285;52.128;21.060;2023-06-22T08:23:29;10.90;;;9.90;;
43682;SDS011;29285;52.128;21.060;2023-06-22T08:28:29;10.70;;;9.60;;
43682;SDS011;29285;52.128;21.060;2023-06-22T08:33:30;9.90;;;8.80;;
43682;SDS011;29285;52.128;21.060;2023-06-22T08:38:31;9.90;;;8.80;;
43682;SDS011;29285;52.128;21.060;2023-06-22T08:43:32;8.60;;;7.80;;
43682;SDS011;29285;52.128;21.060;2023-06-22T08:48:33;9.70;;;8.30;;
43682;SDS011;29285;52.128;21.060;2023-06-22T08:53:34;8.70;;;7.90;;
43682;SDS011;29285;52.128;21.060;2023-06-22T08:58:35;9.70;;;7.90;;
43682;SDS011;29285;52.128;21.060;2023-06-22T09:03:36;7.20;;;6.00;;
43682;SDS011;29285;52.128;21.060;2023-06-22T09:08:38;10.30;;;7.80;;
43682;SDS011;29285;52.128;21.060;2023-06-22T09:13:39;10.00;;;6.80;;
43682;SDS011;29285;52.128;21.060;2023-06-22T09:18:40;6.00;;;5.20;;
43682;SDS011;29285;52.128;21.060;2023-06-22T09:23:41;8.30;;;6.20;;
43682;SDS011;29285;52.128;21.060;2023-06-22T09:28:42;7.00;;;5.60;;
43682;SDS011;29285;52.128;21.060;2023-06-22T09:33:43;7.90;;;5.20;;
43682;SDS011;29285;52.128;21.060;2023-06-22T09:38:44;6.80;;;4.70;;
43682;SDS011;29285;52.128;21.060;2023-06-22T09:43:45;5.40;;;4.90;;
43682;SDS011;29285;52.128;21.060;2023-06-22T09:48:46;5.50;;;4.80;;
43682;SDS011;29285;52.128;21.060;2023-06-22T09:53:47;7.20;;;5.20;;
43682;SDS011;29285;52.128;21.060;2023-06-22T09:58:48;15.10;;;5.30;;
43682;SDS011;29285;52.128;21.060;2023-06-22T10:03:53;5.60;;;4.50;;
43682;SDS011;29285;52.128;21.060;2023-06-22T10:08:57;5.50;;;4.50;;
43682;SDS011;29285;52.128;21.060;2023-06-22T10:13:58;6.00;;;4.40;;
43682;SDS011;29285;52.128;21.060;2023-06-22T10:18:59;4.50;;;4.10;;
43682;SDS011;29285;52.128;21.060;2023-06-22T10:24:01;7.10;;;4.60;;
43682;SDS011;29285;52.128;21.060;2023-06-22T10:29:06;7.80;;;4.20;;
43682;SDS011;29285;52.128;21.060;2023-06-22T10:34:07;5.20;;;4.30;;
43682;SDS011;29285;52.128;21.060;2023-06-22T10:39:08;5.30;;;4.40;;
43682;SDS011;29285;52.128;21.060;2023-06-22T10:44:09;5.70;;;4.20;;
43682;SDS011;29285;52.128;21.060;2023-06-22T10:49:10;9.80;;;5.10;;
43682;SDS011;29285;52.128;21.060;2023-06-22T10:54:11;6.00;;;5.00;;
43682;SDS011;29285;52.128;21.060;2023-06-22T10:59:14;5.70;;;5.10;;
43682;SDS011;29285;52.128;21.060;2023-06-22T11:04:15;4.90;;;4.30;;
43682;SDS011;29285;52.128;21.060;2023-06-22T11:09:17;6.10;;;4.70;;
43682;SDS011;29285;52.128;21.060;2023-06-22T11:14:21;6.20;;;5.10;;
43682;SDS011;29285;52.128;21.060;2023-06-22T11:19:23;5.50;;;5.00;;
43682;SDS011;29285;52.128;21.060;2023-06-22T11:24:24;5.50;;;5.10;;
43682;SDS011;29285;52.128;21.060;2023-06-22T11:29:25;5.20;;;4.80;;
43682;SDS011;29285;52.128;21.060;2023-06-22T11:34:26;5.90;;;4.30;;
43682;SDS011;29285;52.128;21.060;2023-06-22T11:39:28;5.10;;;4.20;;
43682;SDS011;29285;52.128;21.060;2023-06-22T11:44:29;7.40;;;5.20;;
43682;SDS011;29285;52.128;21.060;2023-06-22T11:49:30;8.30;;;5.00;;
43682;SDS011;29285;52.128;21.060;2023-06-22T11:54:31;6.30;;;4.70;;
43682;SDS011;29285;52.128;21.060;2023-06-22T11:59:32;8.10;;;5.30;;
43682;SDS011;29285;52.128;21.060;2023-06-22T12:04:33;6.90;;;4.70;;
43682;SDS011;29285;52.128;21.060;2023-06-22T12:09:34;5.50;;;4.50;;
43682;SDS011;29285;52.128;21.060;2023-06-22T12:14:35;6.90;;;5.50;;
43682;SDS011;29285;52.128;21.060;2023-06-22T12:19:36;6.90;;;4.80;;
43682;SDS011;29285;52.128;21.060;2023-06-22T12:24:37;5.30;;;4.80;;
43682;SDS011;29285;52.128;21.060;2023-06-22T12:29:38;5.00;;;4.50;;
43682;SDS011;29285;52.128;21.060;2023-06-22T12:34:41;5.50;;;4.90;;
43682;SDS011;29285;52.128;21.060;2023-06-22T12:39:43;5.40;;;5.00;;
43682;SDS011;29285;52.128;21.060;2023-06-22T12:44:44;9.60;;;4.80;;
43682;SDS011;29285;52.128;21.060;2023-06-22T12:49:45;5.50;;;5.00;;
43682;SDS011;29285;52.128;21.060;2023-06-22T12:54:46;6.70;;;4.20;;
43682;SDS011;29285;52.128;21.060;2023-06-22T12:59:47;6.20;;;5.00;;
43682;SDS011;29285;52.128;21.060;2023-06-22T13:04:48;4.60;;;4.20;;
43682;SDS011;29285;52.128;21.060;2023-06-22T13:09:49;5.30;;;4.70;;
43682;SDS011;29285;52.128;21.060;2023-06-22T13:14:53;5.60;;;4.60;;
43682;SDS011;29285;52.128;21.060;2023-06-22T13:19:54;8.80;;;5.20;;
43682;SDS011;29285;52.128;21.060;2023-06-22T13:24:55;5.90;;;4.50;;
43682;SDS011;29285;52.128;21.060;2023-06-22T13:29:57;6.30;;;4.60;;
43682;SDS011;29285;52.128;21.060;2023-06-22T13:34:58;4.90;;;4.50;;
43682;SDS011;29285;52.128;21.060;2023-06-22T13:39:59;5.00;;;4.50;;
43682;SDS011;29285;52.128;21.060;2023-06-22T13:45:01;5.70;;;4.30;;
43682;SDS011;29285;52.128;21.060;2023-06-22T13:50:02;7.20;;;4.60;;
43682;SDS011;29285;52.128;21.060;2023-06-22T13:55:04;6.90;;;4.60;;
43682;SDS011;29285;52.128;21.060;2023-06-22T14:00:07;7.00;;;3.70;;
43682;SDS011;29285;52.128;21.060;2023-06-22T14:05:09;5.60;;;3.70;;
43682;SDS011;29285;52.128;21.060;2023-06-22T14:10:11;4.80;;;4.40;;
43682;SDS011;29285;52.128;21.060;2023-06-22T14:15:12;4.20;;;3.80;;
43682;SDS011;29285;52.128;21.060;2023-06-22T14:20:13;5.30;;;3.50;;
43682;SDS011;29285;52.128;21.060;2023-06-22T14:25:14;4.00;;;3.70;;
43682;SDS011;29285;52.128;21.060;2023-06-22T14:30:15;8.00;;;4.40;;
43682;SDS011;29285;52.128;21.060;2023-06-22T14:35:16;6.50;;;4.30;;
43682;SDS011;29285;52.128;21.060;2023-06-22T14:40:17;4.80;;;3.90;;
43682;SDS011;29285;52.128;21.060;2023-06-22T14:45:18;6.70;;;4.50;;
43682;SDS011;29285;52.128;21.060;2023-06-22T14:50:19;4.00;;;3.60;;
43682;SDS011;29285;52.128;21.060;2023-06-22T14:55:20;5.60;;;4.70;;
43682;SDS011;29285;52.128;21.060;2023-06-22T15:00:21;5.30;;;4.40;;
43682;SDS011;29285;52.128;21.060;2023-06-22T15:05:22;5.00;;;4.60;;
43682;SDS011;29285;52.128;21.060;2023-06-22T15:10:24;5.40;;;4.70;;
43682;SDS011;29285;52.128;21.060;2023-06-22T15:15:25;4.60;;;4.20;;
43682;SDS011;29285;52.128;21.060;2023-06-22T15:20:26;4.90;;;4.20;;
43682;SDS011;29285;52.128;21.060;2023-06-22T15:25:27;5.20;;;4.70;;
43682;SDS011;29285;52.128;21.060;2023-06-22T15:30:28;5.80;;;4.60;;
43682;SDS011;29285;52.128;21.060;2023-06-22T15:35:30;5.30;;;4.80;;
43682;SDS011;29285;52.128;21.060;2023-06-22T15:40:31;5.90;;;4.80;;
43682;SDS011;29285;52.128;21.060;2023-06-22T15:45:32;6.30;;;4.70;;
43682;SDS011;29285;52.128;21.060;2023-06-22T15:50:32;5.90;;;5.40;;
43682;SDS011;29285;52.128;21.060;2023-06-22T15:55:34;6.30;;;5.40;;
43682;SDS011;29285;52.128;21.060;2023-06-22T16:00:35;5.50;;;5.00;;
43682;SDS011;29285;52.128;21.060;2023-06-22T16:05:36;5.00;;;4.60;;
43682;SDS011;29285;52.128;21.060;2023-06-22T16:10:40;4.60;;;4.20;;
43682;SDS011;29285;52.128;21.060;2023-06-22T16:15:41;6.10;;;5.50;;
43682;SDS011;29285;52.128;21.060;2023-06-22T16:20:42;5.20;;;4.80;;
43682;SDS011;29285;52.128;21.060;2023-06-22T16:25:43;4.90;;;4.50;;
43682;SDS011;29285;52.128;21.060;2023-06-22T16:30:44;5.20;;;4.80;;
43682;SDS011;29285;52.128;21.060;2023-06-22T16:35:46;7.60;;;4.60;;
43682;SDS011;29285;52.128;21.060;2023-06-22T16:40:47;6.10;;;4.60;;
43682;SDS011;29285;52.128;21.060;2023-06-22T16:45:48;6.60;;;5.00;;
43682;SDS011;29285;52.128;21.060;2023-06-22T16:50:49;6.20;;;4.80;;
43682;SDS011;29285;52.128;21.060;2023-06-22T16:55:50;5.90;;;5.40;;
43682;SDS011;29285;52.128;21.060;2023-06-22T17:05:58;5.50;;;4.70;;
43682;SDS011;29285;52.128;21.060;2023-06-22T17:10:59;5.10;;;4.70;;
43682;SDS011;29285;52.128;21.060;2023-06-22T17:16:01;8.60;;;5.00;;
43682;SDS011;29285;52.128;21.060;2023-06-22T17:21:06;5.40;;;4.80;;
43682;SDS011;29285;52.128;21.060;2023-06-22T17:26:07;5.40;;;4.90;;
43682;SDS011;29285;52.128;21.060;2023-06-22T17:31:08;6.60;;;5.00;;
43682;SDS011;29285;52.128;21.060;2023-06-22T17:36:11;7.00;;;4.60;;
43682;SDS011;29285;52.128;21.060;2023-06-22T17:41:14;6.30;;;5.10;;
43682;SDS011;29285;52.128;21.060;2023-06-22T17:46:15;5.60;;;4.90;;
43682;SDS011;29285;52.128;21.060;2023-06-22T17:51:17;6.00;;;5.50;;
43682;SDS011;29285;52.128;21.060;2023-06-22T17:56:18;10.70;;;5.50;;
43682;SDS011;29285;52.128;21.060;2023-06-22T18:01:30;6.00;;;5.30;;
43682;SDS011;29285;52.128;21.060;2023-06-22T18:06:42;8.90;;;5.30;;
43682;SDS011;29285;52.128;21.060;2023-06-22T18:11:48;7.70;;;5.10;;
43682;SDS011;29285;52.128;21.060;2023-06-22T18:16:52;5.90;;;5.30;;
43682;SDS011;29285;52.128;21.060;2023-06-22T18:21:54;7.60;;;6.90;;
43682;SDS011;29285;52.128;21.060;2023-06-22T18:26:55;17.10;;;15.60;;
43682;SDS011;29285;52.128;21.060;2023-06-22T18:31:57;6.30;;;5.50;;
43682;SDS011;29285;52.128;21.060;2023-06-22T18:36:58;9.40;;;5.60;;
43682;SDS011;29285;52.128;21.060;2023-06-22T18:42:00;7.70;;;5.80;;
43682;SDS011;29285;52.128;21.060;2023-06-22T18:47:03;5.70;;;5.20;;
43682;SDS011;29285;52.128;21.060;2023-06-22T18:57:12;8.80;;;6.50;;
43682;SDS011;29285;52.128;21.060;2023-06-22T19:07:55;7.10;;;6.40;;
43682;SDS011;29285;52.128;21.060;2023-06-22T19:12:54;9.90;;;8.00;;
43682;SDS011;29285;52.128;21.060;2023-06-22T19:17:59;11.50;;;8.40;;
43682;SDS011;29285;52.128;21.060;2023-06-22T19:23:02;7.50;;;6.70;;
43682;SDS011;29285;52.128;21.060;2023-06-22T19:28:06;9.10;;;6.70;;
43682;SDS011;29285;52.128;21.060;2023-06-22T19:33:11;9.80;;;7.00;;
43682;SDS011;29285;52.128;21.060;2023-06-22T19:38:16;8.70;;;6.40;;
43682;SDS011;29285;52.128;21.060;2023-06-22T19:43:18;7.20;;;6.50;;
43682;SDS011;29285;52.128;21.060;2023-06-22T19:48:19;9.80;;;6.50;;
43682;SDS011;29285;52.128;21.060;2023-06-22T19:53:25;10.50;;;6.90;;
43682;SDS011;29285;52.128;21.060;2023-06-22T19:58:26;9.30;;;7.10;;
43682;SDS011;29285;52.128;21.060;2023-06-22T20:03:37;9.70;;;6.90;;
43682;SDS011;29285;52.128;21.060;2023-06-22T20:08:54;9.40;;;7.20;;
43682;SDS011;29285;52.128;21.060;2023-06-22T20:13:59;11.00;;;6.80;;
43682;SDS011;29285;52.128;21.060;2023-06-22T20:19:08;9.20;;;7.50;;
43682;SDS011;29285;52.128;21.060;2023-06-22T20:24:17;7.90;;;7.00;;
43682;SDS011;29285;52.128;21.060;2023-06-22T20:29:28;10.00;;;7.20;;
43682;SDS011;29285;52.128;21.060;2023-06-22T20:34:37;8.20;;;7.50;;
43682;SDS011;29285;52.128;21.060;2023-06-22T20:39:39;10.40;;;8.30;;
43682;SDS011;29285;52.128;21.060;2023-06-22T20:44:41;10.40;;;7.60;;
43682;SDS011;29285;52.128;21.060;2023-06-22T20:49:45;11.10;;;7.80;;
43682;SDS011;29285;52.128;21.060;2023-06-22T20:54:46;8.40;;;7.10;;
43682;SDS011;29285;52.128;21.060;2023-06-22T20:59:47;8.90;;;7.10;;
43682;SDS011;29285;52.128;21.060;2023-06-22T21:04:49;11.00;;;8.30;;
43682;SDS011;29285;52.128;21.060;2023-06-22T21:09:49;8.30;;;7.50;;
43682;SDS011;29285;52.128;21.060;2023-06-22T21:14:50;9.50;;;7.30;;
43682;SDS011;29285;52.128;21.060;2023-06-22T21:19:51;8.50;;;7.60;;
43682;SDS011;29285;52.128;21.060;2023-06-22T21:25:03;8.00;;;7.20;;
43682;SDS011;29285;52.128;21.060;2023-06-22T21:30:09;7.50;;;6.80;;
43682;SDS011;29285;52.128;21.060;2023-06-22T21:35:11;7.80;;;7.10;;
43682;SDS011;29285;52.128;21.060;2023-06-22T21:40:12;10.00;;;9.10;;
43682;SDS011;29285;52.128;21.060;2023-06-22T21:45:13;8.60;;;7.80;;
43682;SDS011;29285;52.128;21.060;2023-06-22T21:50:15;8.20;;;7.50;;
43682;SDS011;29285;52.128;21.060;2023-06-22T21:55:16;8.40;;;7.40;;
43682;SDS011;29285;52.128;21.060;2023-06-22T22:00:17;7.50;;;6.80;;
43682;SDS011;29285;52.128;21.060;2023-06-22T22:05:18;7.90;;;6.80;;
43682;SDS011;29285;52.128;21.060;2023-06-22T22:10:19;10.20;;;7.20;;
43682;SDS011;29285;52.128;21.060;2023-06-22T22:15:20;7.80;;;7.10;;
43682;SDS011;29285;52.128;21.060;2023-06-22T22:20:21;10.30;;;6.60;;
43682;SDS011;29285;52.128;21.060;2023-06-22T22:25:23;8.10;;;6.70;;
43682;SDS011;29285;52.128;21.060;2023-06-22T22:30:26;8.60;;;7.40;;
43682;SDS011;29285;52.128;21.060;2023-06-22T22:35:27;7.60;;;6.40;;
43682;SDS011;29285;52.128;21.060;2023-06-22T22:40:28;9.10;;;7.90;;
43682;SDS011;29285;52.128;21.060;2023-06-22T22:45:29;9.80;;;7.10;;
43682;SDS011;29285;52.128;21.060;2023-06-22T22:50:30;8.30;;;7.50;;
43682;SDS011;29285;52.128;21.060;2023-06-22T22:55:31;8.50;;;7.70;;
43682;SDS011;29285;52.128;21.060;2023-06-22T23:00:32;9.90;;;8.50;;
43682;SDS011;29285;52.128;21.060;2023-06-22T23:05:33;10.90;;;7.70;;
43682;SDS011;29285;52.128;21.060;2023-06-22T23:10:34;8.40;;;7.70;;
43682;SDS011;29285;52.128;21.060;2023-06-22T23:15:36;8.80;;;7.90;;
43682;SDS011;29285;52.128;21.060;2023-06-22T23:20:37;9.40;;;7.60;;
43682;SDS011;29285;52.128;21.060;2023-06-22T23:25:38;10.20;;;8.10;;
43682;SDS011;29285;52.128;21.060;2023-06-22T23:30:39;9.00;;;7.90;;
43682;SDS011;29285;52.128;21.060;2023-06-22T23:35:39;9.60;;;8.70;;
43682;SDS011;29285;52.128;21.060;2023-06-22T23:40:41;10.40;;;7.70;;
43682;SDS011;29285;52.128;21.060;2023-06-22T23:45:42;9.70;;;8.40;;
43682;SDS011;29285;52.128;21.060;2023-06-22T23:50:43;10.00;;;9.10;;
43682;SDS011;29285;52.128;21.060;2023-06-22T23:55:44;9.00;;;8.20;;
